sensor_id;sensor_type;location;lat;lon;timestamp;P1;durP1;ratioP1;P2;durP2;ratioP2
21494;SDS011;10909;53.590;10.054;2022-09-24T00:01:14;3.72;;;3.28;;
21494;SDS011;10909;53.590;10.054;2022-09-24T00:03:49;3.30;;;3.00;;
21494;SDS011;10909;53.590;10.054;2022-09-24T00:06:16;3.47;;;3.17;;
21494;SDS011;10909;53.590;10.054;2022-09-24T00:08:45;3.20;;;2.90;;
21494;SDS011;10909;53.590;10.054;2022-09-24T00:11:13;3.88;;;3.22;;
21494;SDS011;10909;53.590;10.054;2022-09-24T00:13:40;3.80;;;3.50;;
21494;SDS011;10909;53.590;10.054;2022-09-24T00:16:07;5.22;;;3.50;;
21494;SDS011;10909;53.590;10.054;2022-09-24T00:18:35;4.35;;;3.17;;
21494;SDS011;10909;53.590;10.054;2022-09-24T00:21:14;3.70;;;3.33;;
21494;SDS011;10909;53.590;10.054;2022-09-24T00:23:40;3.55;;;3.25;;
21494;SDS011;10909;53.590;10.054;2022-09-24T00:26:08;4.20;;;3.03;;
21494;SDS011;10909;53.590;10.054;2022-09-24T00:28:54;4.03;;;3.42;;
21494;SDS011;10909;53.590;10.054;2022-09-24T00:31:19;4.60;;;3.67;;
21494;SDS011;10909;53.590;10.054;2022-09-24T00:33:45;3.53;;;3.22;;
21494;SDS011;10909;53.590;10.054;2022-09-24T00:36:10;4.38;;;3.60;;
21494;SDS011;10909;53.590;10.054;2022-09-24T00:38:38;4.18;;;3.17;;
21494;SDS011;10909;53.590;10.054;2022-09-24T00:41:05;3.70;;;3.38;;
21494;SDS011;10909;53.590;10.054;2022-09-24T00:43:34;4.45;;;3.33;;
21494;SDS011;10909;53.590;10.054;2022-09-24T00:48:29;3.72;;;3.42;;
21494;SDS011;10909;53.590;10.054;2022-09-24T00:50:56;3.70;;;3.28;;
21494;SDS011;10909;53.590;10.054;2022-09-24T00:53:23;3.85;;;3.55;;
21494;SDS011;10909;53.590;10.054;2022-09-24T00:55:53;3.83;;;3.47;;
21494;SDS011;10909;53.590;10.054;2022-09-24T00:58:20;6.70;;;3.60;;
21494;SDS011;10909;53.590;10.054;2022-09-24T01:00:47;3.75;;;2.63;;
21494;SDS011;10909;53.590;10.054;2022-09-24T01:03:17;4.40;;;3.72;;
21494;SDS011;10909;53.590;10.054;2022-09-24T01:05:46;4.10;;;3.60;;
21494;SDS011;10909;53.590;10.054;2022-09-24T01:08:12;4.38;;;3.80;;
21494;SDS011;10909;53.590;10.054;2022-09-24T01:15:58;3.65;;;3.35;;
21494;SDS011;10909;53.590;10.054;2022-09-24T01:27:10;4.38;;;3.22;;
21494;SDS011;10909;53.590;10.054;2022-09-24T01:32:13;4.82;;;3.45;;
21494;SDS011;10909;53.590;10.054;2022-09-24T01:35:01;4.00;;;3.63;;
21494;SDS011;10909;53.590;10.054;2022-09-24T01:37:44;3.83;;;3.45;;
21494;SDS011;10909;53.590;10.054;2022-09-24T01:40:16;4.13;;;3.40;;
21494;SDS011;10909;53.590;10.054;2022-09-24T01:42:44;6.57;;;3.35;;
21494;SDS011;10909;53.590;10.054;2022-09-24T01:45:10;4.95;;;3.92;;
21494;SDS011;10909;53.590;10.054;2022-09-24T01:47:38;3.95;;;3.65;;
21494;SDS011;10909;53.590;10.054;2022-09-24T01:50:10;4.72;;;3.58;;
21494;SDS011;10909;53.590;10.054;2022-09-24T01:52:43;4.10;;;3.40;;
21494;SDS011;10909;53.590;10.054;2022-09-24T01:55:12;4.15;;;3.75;;
21494;SDS011;10909;53.590;10.054;2022-09-24T01:57:45;3.75;;;3.45;;
21494;SDS011;10909;53.590;10.054;2022-09-24T02:00:15;3.65;;;3.33;;
21494;SDS011;10909;53.590;10.054;2022-09-24T02:05:15;3.70;;;3.40;;
21494;SDS011;10909;53.590;10.054;2022-09-24T02:10:30;4.28;;;3.30;;
21494;SDS011;10909;53.590;10.054;2022-09-24T02:13:02;3.97;;;3.58;;
21494;SDS011;10909;53.590;10.054;2022-09-24T02:15:35;5.47;;;3.72;;
21494;SDS011;10909;53.590;10.054;2022-09-24T02:18:06;3.92;;;3.22;;
21494;SDS011;10909;53.590;10.054;2022-09-24T02:20:35;3.70;;;3.40;;
21494;SDS011;10909;53.590;10.054;2022-09-24T02:23:04;4.63;;;3.60;;
21494;SDS011;10909;53.590;10.054;2022-09-24T02:25:32;5.80;;;4.07;;
21494;SDS011;10909;53.590;10.054;2022-09-24T02:28:05;4.80;;;3.78;;
21494;SDS011;10909;53.590;10.054;2022-09-24T02:30:31;4.40;;;3.75;;
21494;SDS011;10909;53.590;10.054;2022-09-24T02:33:04;4.55;;;4.15;;
21494;SDS011;10909;53.590;10.054;2022-09-24T02:35:52;4.45;;;3.80;;
21494;SDS011;10909;53.590;10.054;2022-09-24T02:38:18;4.90;;;4.28;;
21494;SDS011;10909;53.590;10.054;2022-09-24T02:40:44;5.43;;;4.55;;
21494;SDS011;10909;53.590;10.054;2022-09-24T02:43:09;5.50;;;4.32;;
21494;SDS011;10909;53.590;10.054;2022-09-24T02:45:35;4.47;;;3.83;;
21494;SDS011;10909;53.590;10.054;2022-09-24T02:48:01;4.70;;;4.20;;
21494;SDS011;10909;53.590;10.054;2022-09-24T02:50:26;4.50;;;4.10;;
21494;SDS011;10909;53.590;10.054;2022-09-24T02:52:52;4.45;;;4.05;;
21494;SDS011;10909;53.590;10.054;2022-09-24T02:55:18;4.20;;;3.80;;
21494;SDS011;10909;53.590;10.054;2022-09-24T02:57:43;5.00;;;4.50;;
21494;SDS011;10909;53.590;10.054;2022-09-24T03:00:10;4.70;;;4.30;;
21494;SDS011;10909;53.590;10.054;2022-09-24T03:02:36;4.55;;;3.97;;
21494;SDS011;10909;53.590;10.054;2022-09-24T03:05:02;4.68;;;4.10;;
21494;SDS011;10909;53.590;10.054;2022-09-24T03:07:28;5.43;;;4.55;;
21494;SDS011;10909;53.590;10.054;2022-09-24T03:09:53;4.97;;;4.32;;
21494;SDS011;10909;53.590;10.054;2022-09-24T03:12:19;5.13;;;4.65;;
21494;SDS011;10909;53.590;10.054;2022-09-24T03:14:45;5.32;;;4.88;;
21494;SDS011;10909;53.590;10.054;2022-09-24T03:17:10;4.97;;;4.47;;
21494;SDS011;10909;53.590;10.054;2022-09-24T03:19:36;5.95;;;5.05;;
21494;SDS011;10909;53.590;10.054;2022-09-24T03:22:01;5.50;;;5.00;;
21494;SDS011;10909;53.590;10.054;2022-09-24T03:24:27;5.15;;;4.65;;
21494;SDS011;10909;53.590;10.054;2022-09-24T03:26:53;5.45;;;4.95;;
21494;SDS011;10909;53.590;10.054;2022-09-24T03:29:18;5.25;;;4.75;;
21494;SDS011;10909;53.590;10.054;2022-09-24T03:32:04;5.45;;;4.95;;
21494;SDS011;10909;53.590;10.054;2022-09-24T03:34:29;6.05;;;5.45;;
21494;SDS011;10909;53.590;10.054;2022-09-24T03:36:55;5.45;;;4.95;;
21494;SDS011;10909;53.590;10.054;2022-09-24T03:39:21;6.00;;;5.40;;
21494;SDS011;10909;53.590;10.054;2022-09-24T03:41:46;5.40;;;4.90;;
21494;SDS011;10909;53.590;10.054;2022-09-24T03:44:12;5.72;;;4.88;;
21494;SDS011;10909;53.590;10.054;2022-09-24T03:46:37;4.78;;;4.38;;
21494;SDS011;10909;53.590;10.054;2022-09-24T03:49:03;4.90;;;4.40;;
21494;SDS011;10909;53.590;10.054;2022-09-24T03:51:28;5.05;;;4.53;;
21494;SDS011;10909;53.590;10.054;2022-09-24T03:53:54;3.47;;;3.15;;
21494;SDS011;10909;53.590;10.054;2022-09-24T03:56:19;5.05;;;4.10;;
21494;SDS011;10909;53.590;10.054;2022-09-24T03:58:45;5.45;;;4.72;;
21494;SDS011;10909;53.590;10.054;2022-09-24T04:01:12;5.53;;;4.43;;
21494;SDS011;10909;53.590;10.054;2022-09-24T04:03:38;5.32;;;4.55;;
21494;SDS011;10909;53.590;10.054;2022-09-24T04:06:04;4.78;;;4.28;;
21494;SDS011;10909;53.590;10.054;2022-09-24T04:08:30;5.00;;;4.50;;
21494;SDS011;10909;53.590;10.054;2022-09-24T04:10:56;5.30;;;4.60;;
21494;SDS011;10909;53.590;10.054;2022-09-24T04:13:22;5.45;;;4.93;;
21494;SDS011;10909;53.590;10.054;2022-09-24T04:15:48;6.00;;;5.40;;
21494;SDS011;10909;53.590;10.054;2022-09-24T04:18:15;5.43;;;4.93;;
21494;SDS011;10909;53.590;10.054;2022-09-24T04:20:41;5.35;;;4.95;;
21494;SDS011;10909;53.590;10.054;2022-09-24T04:23:07;5.32;;;4.82;;
21494;SDS011;10909;53.590;10.054;2022-09-24T04:25:34;5.47;;;4.97;;
21494;SDS011;10909;53.590;10.054;2022-09-24T04:28:02;5.28;;;4.78;;
21494;SDS011;10909;53.590;10.054;2022-09-24T04:30:29;6.28;;;4.90;;
21494;SDS011;10909;53.590;10.054;2022-09-24T04:32:56;5.68;;;4.70;;
21494;SDS011;10909;53.590;10.054;2022-09-24T04:35:27;5.30;;;4.80;;
21494;SDS011;10909;53.590;10.054;2022-09-24T04:37:54;6.28;;;5.03;;
21494;SDS011;10909;53.590;10.054;2022-09-24T04:40:20;6.10;;;4.97;;
21494;SDS011;10909;53.590;10.054;2022-09-24T04:42:46;4.90;;;4.50;;
21494;SDS011;10909;53.590;10.054;2022-09-24T04:45:12;5.25;;;4.75;;
21494;SDS011;10909;53.590;10.054;2022-09-24T04:47:44;5.10;;;4.10;;
21494;SDS011;10909;53.590;10.054;2022-09-24T04:50:15;5.20;;;4.70;;
21494;SDS011;10909;53.590;10.054;2022-09-24T04:52:41;4.68;;;4.28;;
21494;SDS011;10909;53.590;10.054;2022-09-24T04:55:06;5.60;;;4.70;;
21494;SDS011;10909;53.590;10.054;2022-09-24T04:57:32;5.40;;;4.90;;
21494;SDS011;10909;53.590;10.054;2022-09-24T04:59:59;4.90;;;4.40;;
21494;SDS011;10909;53.590;10.054;2022-09-24T05:02:26;6.70;;;4.90;;
21494;SDS011;10909;53.590;10.054;2022-09-24T05:04:52;5.35;;;4.85;;
21494;SDS011;10909;53.590;10.054;2022-09-24T05:07:17;4.97;;;4.50;;
21494;SDS011;10909;53.590;10.054;2022-09-24T05:09:43;4.97;;;4.47;;
21494;SDS011;10909;53.590;10.054;2022-09-24T05:12:08;5.40;;;4.90;;
21494;SDS011;10909;53.590;10.054;2022-09-24T05:14:34;5.30;;;4.80;;
21494;SDS011;10909;53.590;10.054;2022-09-24T05:17:01;5.45;;;4.95;;
21494;SDS011;10909;53.590;10.054;2022-09-24T05:19:26;5.78;;;5.25;;
21494;SDS011;10909;53.590;10.054;2022-09-24T05:21:52;5.82;;;5.22;;
21494;SDS011;10909;53.590;10.054;2022-09-24T05:24:17;5.68;;;5.15;;
21494;SDS011;10909;53.590;10.054;2022-09-24T05:26:43;5.68;;;5.18;;
21494;SDS011;10909;53.590;10.054;2022-09-24T05:29:27;5.63;;;5.00;;
21494;SDS011;10909;53.590;10.054;2022-09-24T05:31:53;5.68;;;5.18;;
21494;SDS011;10909;53.590;10.054;2022-09-24T05:34:19;6.03;;;5.10;;
21494;SDS011;10909;53.590;10.054;2022-09-24T05:36:45;5.53;;;5.03;;
21494;SDS011;10909;53.590;10.054;2022-09-24T05:39:11;5.40;;;4.97;;
21494;SDS011;10909;53.590;10.054;2022-09-24T05:41:39;6.25;;;5.15;;
21494;SDS011;10909;53.590;10.054;2022-09-24T05:44:05;6.03;;;5.45;;
21494;SDS011;10909;53.590;10.054;2022-09-24T05:46:31;5.97;;;5.20;;
21494;SDS011;10909;53.590;10.054;2022-09-24T05:48:57;5.32;;;4.82;;
21494;SDS011;10909;53.590;10.054;2022-09-24T05:51:23;5.43;;;4.93;;
21494;SDS011;10909;53.590;10.054;2022-09-24T05:53:49;5.78;;;5.13;;
21494;SDS011;10909;53.590;10.054;2022-09-24T05:56:15;5.10;;;4.60;;
21494;SDS011;10909;53.590;10.054;2022-09-24T05:58:41;4.85;;;4.35;;
21494;SDS011;10909;53.590;10.054;2022-09-24T06:01:07;7.13;;;5.00;;
21494;SDS011;10909;53.590;10.054;2022-09-24T06:03:32;5.50;;;5.00;;
21494;SDS011;10909;53.590;10.054;2022-09-24T06:05:58;5.82;;;5.22;;
21494;SDS011;10909;53.590;10.054;2022-09-24T06:08:26;5.90;;;5.40;;
21494;SDS011;10909;53.590;10.054;2022-09-24T06:10:56;6.07;;;5.57;;
21494;SDS011;10909;53.590;10.054;2022-09-24T06:13:26;6.35;;;5.75;;
21494;SDS011;10909;53.590;10.054;2022-09-24T06:15:52;6.05;;;5.55;;
21494;SDS011;10909;53.590;10.054;2022-09-24T06:18:23;6.70;;;6.10;;
21494;SDS011;10909;53.590;10.054;2022-09-24T06:20:49;6.82;;;6.15;;
21494;SDS011;10909;53.590;10.054;2022-09-24T06:23:15;7.13;;;6.43;;
21494;SDS011;10909;53.590;10.054;2022-09-24T06:25:41;6.70;;;6.10;;
21494;SDS011;10909;53.590;10.054;2022-09-24T06:28:06;7.68;;;6.97;;
21494;SDS011;10909;53.590;10.054;2022-09-24T06:30:33;7.53;;;6.83;;
21494;SDS011;10909;53.590;10.054;2022-09-24T06:33:03;7.10;;;6.40;;
21494;SDS011;10909;53.590;10.054;2022-09-24T06:35:33;8.20;;;7.47;;
21494;SDS011;10909;53.590;10.054;2022-09-24T06:38:03;7.23;;;6.47;;
21494;SDS011;10909;53.590;10.054;2022-09-24T06:40:29;6.83;;;6.23;;
21494;SDS011;10909;53.590;10.054;2022-09-24T06:42:55;7.30;;;6.60;;
21494;SDS011;10909;53.590;10.054;2022-09-24T06:45:21;7.80;;;6.93;;
21494;SDS011;10909;53.590;10.054;2022-09-24T06:47:55;7.23;;;6.53;;
21494;SDS011;10909;53.590;10.054;2022-09-24T06:50:25;6.35;;;5.75;;
21494;SDS011;10909;53.590;10.054;2022-09-24T06:52:53;6.33;;;5.73;;
21494;SDS011;10909;53.590;10.054;2022-09-24T06:55:20;7.20;;;6.50;;
21494;SDS011;10909;53.590;10.054;2022-09-24T06:57:46;6.47;;;5.83;;
21494;SDS011;10909;53.590;10.054;2022-09-24T07:00:12;7.50;;;6.78;;
21494;SDS011;10909;53.590;10.054;2022-09-24T07:02:39;6.57;;;5.97;;
21494;SDS011;10909;53.590;10.054;2022-09-24T07:05:05;7.57;;;6.53;;
21494;SDS011;10909;53.590;10.054;2022-09-24T07:07:32;6.93;;;6.23;;
21494;SDS011;10909;53.590;10.054;2022-09-24T07:10:00;6.43;;;5.87;;
21494;SDS011;10909;53.590;10.054;2022-09-24T07:12:28;7.63;;;5.93;;
21494;SDS011;10909;53.590;10.054;2022-09-24T07:14:55;6.23;;;5.63;;
21494;SDS011;10909;53.590;10.054;2022-09-24T07:17:21;6.00;;;5.40;;
21494;SDS011;10909;53.590;10.054;2022-09-24T07:19:49;6.53;;;5.93;;
21494;SDS011;10909;53.590;10.054;2022-09-24T07:22:15;6.90;;;5.67;;
21494;SDS011;10909;53.590;10.054;2022-09-24T07:24:40;6.13;;;5.53;;
21494;SDS011;10909;53.590;10.054;2022-09-24T07:27:06;6.60;;;6.00;;
21494;SDS011;10909;53.590;10.054;2022-09-24T07:29:32;6.53;;;5.90;;
21494;SDS011;10909;53.590;10.054;2022-09-24T07:31:58;6.50;;;5.90;;
21494;SDS011;10909;53.590;10.054;2022-09-24T07:34:24;6.50;;;5.67;;
21494;SDS011;10909;53.590;10.054;2022-09-24T07:36:50;6.00;;;5.50;;
21494;SDS011;10909;53.590;10.054;2022-09-24T07:39:15;6.30;;;5.70;;
21494;SDS011;10909;53.590;10.054;2022-09-24T07:41:41;5.57;;;5.07;;
21494;SDS011;10909;53.590;10.054;2022-09-24T07:44:07;5.17;;;4.77;;
21494;SDS011;10909;53.590;10.054;2022-09-24T07:46:34;5.77;;;5.17;;
21494;SDS011;10909;53.590;10.054;2022-09-24T07:48:59;4.90;;;4.50;;
21494;SDS011;10909;53.590;10.054;2022-09-24T07:51:26;5.87;;;5.27;;
21494;SDS011;10909;53.590;10.054;2022-09-24T07:53:53;5.90;;;5.40;;
21494;SDS011;10909;53.590;10.054;2022-09-24T07:56:19;5.60;;;5.10;;
21494;SDS011;10909;53.590;10.054;2022-09-24T07:58:49;5.50;;;5.00;;
21494;SDS011;10909;53.590;10.054;2022-09-24T08:01:16;5.73;;;5.23;;
21494;SDS011;10909;53.590;10.054;2022-09-24T08:03:43;5.73;;;5.23;;
21494;SDS011;10909;53.590;10.054;2022-09-24T08:06:10;5.17;;;4.73;;
21494;SDS011;10909;53.590;10.054;2022-09-24T08:08:37;5.90;;;5.30;;
21494;SDS011;10909;53.590;10.054;2022-09-24T08:11:07;5.53;;;5.00;;
21494;SDS011;10909;53.590;10.054;2022-09-24T08:13:35;5.83;;;5.33;;
21494;SDS011;10909;53.590;10.054;2022-09-24T08:16:03;5.50;;;5.10;;
21494;SDS011;10909;53.590;10.054;2022-09-24T08:18:29;6.25;;;5.65;;
21494;SDS011;10909;53.590;10.054;2022-09-24T08:20:56;5.80;;;5.30;;
21494;SDS011;10909;53.590;10.054;2022-09-24T08:23:30;5.77;;;5.27;;
21494;SDS011;10909;53.590;10.054;2022-09-24T08:25:57;6.27;;;5.67;;
21494;SDS011;10909;53.590;10.054;2022-09-24T08:28:22;6.95;;;5.88;;
21494;SDS011;10909;53.590;10.054;2022-09-24T08:30:48;6.03;;;5.53;;
21494;SDS011;10909;53.590;10.054;2022-09-24T08:33:14;5.90;;;5.32;;
21494;SDS011;10909;53.590;10.054;2022-09-24T08:35:40;5.88;;;5.35;;
21494;SDS011;10909;53.590;10.054;2022-09-24T08:38:06;5.77;;;5.17;;
21494;SDS011;10909;53.590;10.054;2022-09-24T08:40:42;6.20;;;5.47;;
21494;SDS011;10909;53.590;10.054;2022-09-24T08:45:52;6.18;;;5.57;;
21494;SDS011;10909;53.590;10.054;2022-09-24T08:48:44;4.90;;;4.50;;
21494;SDS011;10909;53.590;10.054;2022-09-24T08:51:14;6.38;;;5.78;;
21494;SDS011;10909;53.590;10.054;2022-09-24T08:54:06;5.68;;;5.18;;
21494;SDS011;10909;53.590;10.054;2022-09-24T08:56:35;5.90;;;5.35;;
21494;SDS011;10909;53.590;10.054;2022-09-24T09:02:01;6.30;;;5.70;;
21494;SDS011;10909;53.590;10.054;2022-09-24T09:07:34;6.25;;;5.65;;
21494;SDS011;10909;53.590;10.054;2022-09-24T09:10:09;6.57;;;5.97;;
21494;SDS011;10909;53.590;10.054;2022-09-24T09:12:44;6.68;;;6.00;;
21494;SDS011;10909;53.590;10.054;2022-09-24T09:17:58;6.45;;;5.85;;
21494;SDS011;10909;53.590;10.054;2022-09-24T09:20:41;6.15;;;5.57;;
21494;SDS011;10909;53.590;10.054;2022-09-24T09:23:19;6.75;;;6.10;;
21494;SDS011;10909;53.590;10.054;2022-09-24T09:26:04;6.43;;;5.82;;
21494;SDS011;10909;53.590;10.054;2022-09-24T09:28:34;6.35;;;5.75;;
21494;SDS011;10909;53.590;10.054;2022-09-24T09:31:08;6.10;;;5.50;;
21494;SDS011;10909;53.590;10.054;2022-09-24T09:36:46;6.13;;;5.63;;
21494;SDS011;10909;53.590;10.054;2022-09-24T09:48:09;6.63;;;6.00;;
21494;SDS011;10909;53.590;10.054;2022-09-24T09:50:50;6.72;;;6.10;;
21494;SDS011;10909;53.590;10.054;2022-09-24T09:53:37;6.70;;;6.00;;
21494;SDS011;10909;53.590;10.054;2022-09-24T09:56:04;7.30;;;6.60;;
21494;SDS011;10909;53.590;10.054;2022-09-24T09:58:35;7.57;;;6.32;;
21494;SDS011;10909;53.590;10.054;2022-09-24T10:01:06;6.88;;;6.28;;
21494;SDS011;10909;53.590;10.054;2022-09-24T10:03:45;7.55;;;6.78;;
21494;SDS011;10909;53.590;10.054;2022-09-24T10:06:28;8.02;;;6.95;;
21494;SDS011;10909;53.590;10.054;2022-09-24T10:09:18;5.97;;;5.30;;
21494;SDS011;10909;53.590;10.054;2022-09-24T10:11:45;7.60;;;6.90;;
21494;SDS011;10909;53.590;10.054;2022-09-24T10:14:12;7.78;;;7.07;;
21494;SDS011;10909;53.590;10.054;2022-09-24T10:16:45;8.20;;;7.40;;
21494;SDS011;10909;53.590;10.054;2022-09-24T10:19:24;8.25;;;7.45;;
21494;SDS011;10909;53.590;10.054;2022-09-24T10:21:52;9.30;;;7.82;;
21494;SDS011;10909;53.590;10.054;2022-09-24T10:24:22;8.15;;;7.35;;
21494;SDS011;10909;53.590;10.054;2022-09-24T10:26:50;8.48;;;7.68;;
21494;SDS011;10909;53.590;10.054;2022-09-24T10:32:19;9.95;;;7.88;;
21494;SDS011;10909;53.590;10.054;2022-09-24T10:35:00;8.45;;;7.68;;
21494;SDS011;10909;53.590;10.054;2022-09-24T10:37:53;7.88;;;7.20;;
21494;SDS011;10909;53.590;10.054;2022-09-24T10:40:24;8.07;;;7.35;;
21494;SDS011;10909;53.590;10.054;2022-09-24T10:42:58;8.77;;;7.88;;
21494;SDS011;10909;53.590;10.054;2022-09-24T10:45:29;9.18;;;8.10;;
21494;SDS011;10909;53.590;10.054;2022-09-24T10:56:42;9.52;;;7.95;;
21494;SDS011;10909;53.590;10.054;2022-09-24T11:07:55;8.93;;;8.02;;
21494;SDS011;10909;53.590;10.054;2022-09-24T11:19:02;9.60;;;7.97;;
21494;SDS011;10909;53.590;10.054;2022-09-24T11:22:12;8.70;;;7.90;;
21494;SDS011;10909;53.590;10.054;2022-09-24T11:30:34;9.27;;;8.38;;
21494;SDS011;10909;53.590;10.054;2022-09-24T11:33:18;9.05;;;8.02;;
21494;SDS011;10909;53.590;10.054;2022-09-24T11:41:39;8.57;;;7.70;;
21494;SDS011;10909;53.590;10.054;2022-09-24T11:47:24;8.52;;;7.40;;
21494;SDS011;10909;53.590;10.054;2022-09-24T11:53:06;8.93;;;8.02;;
21494;SDS011;10909;53.590;10.054;2022-09-24T11:55:48;9.23;;;7.80;;
21494;SDS011;10909;53.590;10.054;2022-09-24T11:58:23;8.35;;;7.65;;
21494;SDS011;10909;53.590;10.054;2022-09-24T12:00:54;9.25;;;8.05;;
21494;SDS011;10909;53.590;10.054;2022-09-24T12:03:38;8.82;;;7.95;;
21494;SDS011;10909;53.590;10.054;2022-09-24T12:06:10;8.73;;;7.93;;
21494;SDS011;10909;53.590;10.054;2022-09-24T12:11:41;9.07;;;8.18;;
21494;SDS011;10909;53.590;10.054;2022-09-24T12:14:24;8.68;;;7.75;;
21494;SDS011;10909;53.590;10.054;2022-09-24T12:17:01;8.90;;;8.00;;
21494;SDS011;10909;53.590;10.054;2022-09-24T12:19:39;9.07;;;8.27;;
21494;SDS011;10909;53.590;10.054;2022-09-24T12:22:13;10.55;;;8.23;;
21494;SDS011;10909;53.590;10.054;2022-09-24T12:24:50;8.52;;;7.72;;
21494;SDS011;10909;53.590;10.054;2022-09-24T12:27:36;7.95;;;7.25;;
21494;SDS011;10909;53.590;10.054;2022-09-24T12:36:04;8.43;;;7.55;;
21494;SDS011;10909;53.590;10.054;2022-09-24T12:38:38;8.63;;;7.82;;
21494;SDS011;10909;53.590;10.054;2022-09-24T12:51:44;9.32;;;8.43;;
21494;SDS011;10909;53.590;10.054;2022-09-24T12:59:51;8.60;;;7.80;;
21494;SDS011;10909;53.590;10.054;2022-09-24T13:02:19;9.43;;;8.27;;
21494;SDS011;10909;53.590;10.054;2022-09-24T13:07:36;8.13;;;7.38;;
21494;SDS011;10909;53.590;10.054;2022-09-24T13:12:42;8.02;;;7.32;;
21494;SDS011;10909;53.590;10.054;2022-09-24T13:15:22;8.52;;;7.72;;
21494;SDS011;10909;53.590;10.054;2022-09-24T13:20:33;8.30;;;7.50;;
21494;SDS011;10909;53.590;10.054;2022-09-24T13:25:36;8.70;;;7.93;;
21494;SDS011;10909;53.590;10.054;2022-09-24T13:28:03;9.48;;;8.50;;
21494;SDS011;10909;53.590;10.054;2022-09-24T13:30:58;8.30;;;7.50;;
21494;SDS011;10909;53.590;10.054;2022-09-24T13:33:35;7.25;;;6.65;;
21494;SDS011;10909;53.590;10.054;2022-09-24T13:36:13;8.48;;;7.68;;
21494;SDS011;10909;53.590;10.054;2022-09-24T13:38:47;8.43;;;7.63;;
21494;SDS011;10909;53.590;10.054;2022-09-24T13:44:30;8.65;;;7.85;;
21494;SDS011;10909;53.590;10.054;2022-09-24T13:47:10;8.32;;;7.63;;
21494;SDS011;10909;53.590;10.054;2022-09-24T13:49:45;7.35;;;6.70;;
21494;SDS011;10909;53.590;10.054;2022-09-24T13:54:55;8.90;;;8.10;;
21494;SDS011;10909;53.590;10.054;2022-09-24T13:57:28;8.02;;;7.25;;
21494;SDS011;10909;53.590;10.054;2022-09-24T14:00:11;8.85;;;7.95;;
21494;SDS011;10909;53.590;10.054;2022-09-24T14:05:46;8.07;;;7.28;;
21494;SDS011;10909;53.590;10.054;2022-09-24T14:08:14;8.75;;;7.97;;
21494;SDS011;10909;53.590;10.054;2022-09-24T14:10:42;8.50;;;7.47;;
21494;SDS011;10909;53.590;10.054;2022-09-24T14:13:15;7.93;;;7.22;;
21494;SDS011;10909;53.590;10.054;2022-09-24T14:15:57;8.02;;;7.25;;
21494;SDS011;10909;53.590;10.054;2022-09-24T14:18:25;7.63;;;6.93;;
21494;SDS011;10909;53.590;10.054;2022-09-24T14:20:56;7.22;;;6.55;;
21494;SDS011;10909;53.590;10.054;2022-09-24T14:26:27;7.55;;;6.93;;
21494;SDS011;10909;53.590;10.054;2022-09-24T14:28:55;7.88;;;7.15;;
21494;SDS011;10909;53.590;10.054;2022-09-24T14:31:23;7.80;;;7.10;;
21494;SDS011;10909;53.590;10.054;2022-09-24T14:33:49;7.28;;;6.68;;
21494;SDS011;10909;53.590;10.054;2022-09-24T14:36:15;8.10;;;7.32;;
21494;SDS011;10909;53.590;10.054;2022-09-24T14:38:50;7.70;;;7.00;;
21494;SDS011;10909;53.590;10.054;2022-09-24T14:41:28;8.02;;;7.22;;
21494;SDS011;10909;53.590;10.054;2022-09-24T14:44:00;9.40;;;7.50;;
21494;SDS011;10909;53.590;10.054;2022-09-24T14:46:43;7.78;;;6.95;;
21494;SDS011;10909;53.590;10.054;2022-09-24T14:51:57;8.23;;;7.53;;
21494;SDS011;10909;53.590;10.054;2022-09-24T14:54:26;8.90;;;8.02;;
21494;SDS011;10909;53.590;10.054;2022-09-24T14:56:55;9.90;;;7.38;;
21494;SDS011;10909;53.590;10.054;2022-09-24T14:59:45;7.57;;;6.88;;
21494;SDS011;10909;53.590;10.054;2022-09-24T15:04:57;7.90;;;7.05;;
21494;SDS011;10909;53.590;10.054;2022-09-24T15:07:25;8.15;;;7.45;;
21494;SDS011;10909;53.590;10.054;2022-09-24T15:09:53;8.57;;;7.78;;
21494;SDS011;10909;53.590;10.054;2022-09-24T15:12:25;8.80;;;8.00;;
21494;SDS011;10909;53.590;10.054;2022-09-24T15:14:56;8.98;;;8.07;;
21494;SDS011;10909;53.590;10.054;2022-09-24T15:17:33;8.10;;;7.30;;
21494;SDS011;10909;53.590;10.054;2022-09-24T15:20:00;8.05;;;7.35;;
21494;SDS011;10909;53.590;10.054;2022-09-24T15:22:28;8.32;;;7.57;;
21494;SDS011;10909;53.590;10.054;2022-09-24T15:24:55;8.15;;;7.45;;
21494;SDS011;10909;53.590;10.054;2022-09-24T15:27:23;8.88;;;8.02;;
21494;SDS011;10909;53.590;10.054;2022-09-24T15:29:57;8.88;;;8.02;;
21494;SDS011;10909;53.590;10.054;2022-09-24T15:32:27;8.18;;;7.47;;
21494;SDS011;10909;53.590;10.054;2022-09-24T15:34:55;8.60;;;7.80;;
21494;SDS011;10909;53.590;10.054;2022-09-24T15:37:25;8.35;;;7.55;;
21494;SDS011;10909;53.590;10.054;2022-09-24T15:39:52;9.15;;;8.27;;
21494;SDS011;10909;53.590;10.054;2022-09-24T15:42:22;8.65;;;7.75;;
21494;SDS011;10909;53.590;10.054;2022-09-24T15:44:49;8.60;;;7.80;;
21494;SDS011;10909;53.590;10.054;2022-09-24T15:47:16;9.70;;;8.70;;
21494;SDS011;10909;53.590;10.054;2022-09-24T15:49:43;9.02;;;8.15;;
21494;SDS011;10909;53.590;10.054;2022-09-24T15:54:40;9.13;;;8.32;;
21494;SDS011;10909;53.590;10.054;2022-09-24T15:57:06;9.55;;;8.55;;
21494;SDS011;10909;53.590;10.054;2022-09-24T15:59:36;9.98;;;8.15;;
21494;SDS011;10909;53.590;10.054;2022-09-24T16:02:02;9.13;;;7.95;;
21494;SDS011;10909;53.590;10.054;2022-09-24T16:04:34;8.82;;;8.02;;
21494;SDS011;10909;53.590;10.054;2022-09-24T16:07:01;8.63;;;7.72;;
21494;SDS011;10909;53.590;10.054;2022-09-24T16:09:27;8.48;;;7.68;;
21494;SDS011;10909;53.590;10.054;2022-09-24T16:11:52;8.40;;;7.50;;
21494;SDS011;10909;53.590;10.054;2022-09-24T16:14:19;8.30;;;7.50;;
21494;SDS011;10909;53.590;10.054;2022-09-24T16:16:44;7.57;;;6.88;;
21494;SDS011;10909;53.590;10.054;2022-09-24T16:19:10;8.32;;;7.55;;
21494;SDS011;10909;53.590;10.054;2022-09-24T16:21:36;7.88;;;7.15;;
21494;SDS011;10909;53.590;10.054;2022-09-24T16:24:01;7.53;;;6.82;;
21494;SDS011;10909;53.590;10.054;2022-09-24T16:26:27;8.30;;;7.47;;
21494;SDS011;10909;53.590;10.054;2022-09-24T16:28:53;7.95;;;7.15;;
21494;SDS011;10909;53.590;10.054;2022-09-24T16:31:18;8.50;;;7.60;;
21494;SDS011;10909;53.590;10.054;2022-09-24T16:33:44;7.75;;;6.95;;
21494;SDS011;10909;53.590;10.054;2022-09-24T16:36:11;7.68;;;6.97;;
21494;SDS011;10909;53.590;10.054;2022-09-24T16:38:37;7.63;;;6.93;;
21494;SDS011;10909;53.590;10.054;2022-09-24T16:41:04;7.60;;;6.88;;
21494;SDS011;10909;53.590;10.054;2022-09-24T16:43:31;7.75;;;7.05;;
21494;SDS011;10909;53.590;10.054;2022-09-24T16:46:00;8.55;;;7.75;;
21494;SDS011;10909;53.590;10.054;2022-09-24T16:48:29;8.18;;;7.38;;
21494;SDS011;10909;53.590;10.054;2022-09-24T16:51:06;11.70;;;7.82;;
21494;SDS011;10909;53.590;10.054;2022-09-24T16:53:34;7.97;;;7.28;;
21494;SDS011;10909;53.590;10.054;2022-09-24T16:56:05;8.32;;;7.53;;
21494;SDS011;10909;53.590;10.054;2022-09-24T16:58:32;8.75;;;7.93;;
21494;SDS011;10909;53.590;10.054;2022-09-24T17:00:59;8.82;;;7.70;;
21494;SDS011;10909;53.590;10.054;2022-09-24T17:03:28;8.52;;;7.68;;
21494;SDS011;10909;53.590;10.054;2022-09-24T17:05:53;8.52;;;7.72;;
21494;SDS011;10909;53.590;10.054;2022-09-24T17:08:20;8.50;;;7.60;;
21494;SDS011;10909;53.590;10.054;2022-09-24T17:10:49;9.70;;;8.60;;
21494;SDS011;10909;53.590;10.054;2022-09-24T17:13:15;8.60;;;7.80;;
21494;SDS011;10909;53.590;10.054;2022-09-24T17:15:41;8.55;;;7.75;;
21494;SDS011;10909;53.590;10.054;2022-09-24T17:18:07;9.27;;;8.38;;